sensor_id;sensor_type;location;lat;lon;timestamp;pressure;altitude;pressure_sealevel;temperature;humidity
71795;BME280;59641;45.188;5.712;2023-05-21T00:02:07;98809.63;;;18.78;60.30
71795;BME280;59641;45.188;5.712;2023-05-21T00:04:39;98801.78;;;18.76;60.29
71795;BME280;59641;45.188;5.712;2023-05-21T00:07:05;98795.47;;;18.76;60.46
71795;BME280;59641;45.188;5.712;2023-05-21T00:09:32;98804.19;;;18.78;60.40
71795;BME280;59641;45.188;5.712;2023-05-21T00:11:58;98798.75;;;18.78;60.46
71795;BME280;59641;45.188;5.712;2023-05-21T00:14:23;98794.44;;;18.77;60.49
71795;BME280;59641;45.188;5.712;2023-05-21T00:16:48;98789.00;;;18.77;60.35
71795;BME280;59641;45.188;5.712;2023-05-21T00:19:14;98788.69;;;18.78;60.53
71795;BME280;59641;45.188;5.712;2023-05-21T00:21:39;98789.78;;;18.77;60.24
71795;BME280;59641;45.188;5.712;2023-05-21T00:24:05;98781.88;;;18.76;60.31
71795;BME280;59641;45.188;5.712;2023-05-21T00:26:30;98780.28;;;18.74;60.39
71795;BME280;59641;45.188;5.712;2023-05-21T00:28:56;98774.84;;;18.74;60.36
71795;BME280;59641;45.188;5.712;2023-05-21T00:31:22;98772.13;;;18.74;60.22
71795;BME280;59641;45.188;5.712;2023-05-21T00:33:47;98769.69;;;18.73;60.51
71795;BME280;59641;45.188;5.712;2023-05-21T00:36:13;98771.59;;;18.72;60.26
71795;BME280;59641;45.188;5.712;2023-05-21T00:38:41;98767.28;;;18.71;60.39
71795;BME280;59641;45.188;5.712;2023-05-21T00:41:10;98771.88;;;18.71;60.34
71795;BME280;59641;45.188;5.712;2023-05-21T00:43:36;98770.28;;;18.70;60.69
71795;BME280;59641;45.188;5.712;2023-05-21T00:46:05;98765.94;;;18.69;60.50
71795;BME280;59641;45.188;5.712;2023-05-21T00:48:31;98769.47;;;18.69;60.63
71795;BME280;59641;45.188;5.712;2023-05-21T00:50:56;98769.75;;;18.68;60.66
71795;BME280;59641;45.188;5.712;2023-05-21T00:53:22;98769.22;;;18.66;60.59
71795;BME280;59641;45.188;5.712;2023-05-21T00:55:49;98768.69;;;18.64;60.81
71795;BME280;59641;45.188;5.712;2023-05-21T00:58:14;98767.06;;;18.63;60.88
71795;BME280;59641;45.188;5.712;2023-05-21T01:00:42;98763.84;;;18.61;60.93
71795;BME280;59641;45.188;5.712;2023-05-21T01:03:07;98769.00;;;18.62;60.97
71795;BME280;59641;45.188;5.712;2023-05-21T01:05:34;98773.63;;;18.62;60.97
71795;BME280;59641;45.188;5.712;2023-05-21T01:07:59;98773.91;;;18.60;61.03
71795;BME280;59641;45.188;5.712;2023-05-21T01:10:26;98775.00;;;18.59;60.82
71795;BME280;59641;45.188;5.712;2023-05-21T01:12:52;98774.19;;;18.59;60.83
71795;BME280;59641;45.188;5.712;2023-05-21T01:15:19;98768.22;;;18.57;61.12
71795;BME280;59641;45.188;5.712;2023-05-21T01:17:44;98770.94;;;18.57;60.89
71795;BME280;59641;45.188;5.712;2023-05-21T01:20:11;98768.78;;;18.53;61.13
71795;BME280;59641;45.188;5.712;2023-05-21T01:22:53;98761.44;;;18.54;60.76
71795;BME280;59641;45.188;5.712;2023-05-21T01:25:19;98765.28;;;18.53;61.02
71795;BME280;59641;45.188;5.712;2023-05-21T01:27:44;98763.66;;;18.52;61.13
71795;BME280;59641;45.188;5.712;2023-05-21T01:30:11;98769.09;;;18.52;61.19
71795;BME280;59641;45.188;5.712;2023-05-21T01:32:43;98765.56;;;18.51;60.83
71795;BME280;59641;45.188;5.712;2023-05-21T01:35:17;98776.41;;;18.51;61.27
71795;BME280;59641;45.188;5.712;2023-05-21T01:38:28;98777.53;;;18.50;61.05
71795;BME280;59641;45.188;5.712;2023-05-21T01:40:59;98775.38;;;18.47;60.88
71795;BME280;59641;45.188;5.712;2023-05-21T01:43:31;98780.00;;;18.47;61.29
71795;BME280;59641;45.188;5.712;2023-05-21T01:45:58;98773.75;;;18.46;61.32
71795;BME280;59641;45.188;5.712;2023-05-21T01:48:27;98776.47;;;18.46;61.35
71795;BME280;59641;45.188;5.712;2023-05-21T01:50:54;98773.22;;;18.44;61.34
71795;BME280;59641;45.188;5.712;2023-05-21T01:53:22;98775.66;;;18.46;61.43
71795;BME280;59641;45.188;5.712;2023-05-21T01:55:47;98778.38;;;18.46;61.28
71795;BME280;59641;45.188;5.712;2023-05-21T01:58:13;98777.56;;;18.45;61.54
71795;BME280;59641;45.188;5.712;2023-05-21T02:00:40;98778.38;;;18.46;61.14
71795;BME280;59641;45.188;5.712;2023-05-21T02:03:05;98780.28;;;18.45;61.51
71795;BME280;59641;45.188;5.712;2023-05-21T02:05:30;98779.19;;;18.46;61.54
71795;BME280;59641;45.188;5.712;2023-05-21T02:07:57;98774.06;;;18.45;61.60
71795;BME280;59641;45.188;5.712;2023-05-21T02:10:24;98778.66;;;18.44;61.61
71795;BME280;59641;45.188;5.712;2023-05-21T02:12:49;98778.66;;;18.44;61.21
71795;BME280;59641;45.188;5.712;2023-05-21T02:15:15;98770.22;;;18.46;61.25
71795;BME280;59641;45.188;5.712;2023-05-21T02:17:42;98774.06;;;18.45;61.40
71795;BME280;59641;45.188;5.712;2023-05-21T02:20:08;98777.06;;;18.43;61.31
71795;BME280;59641;45.188;5.712;2023-05-21T02:22:44;98777.84;;;18.44;60.96
71795;BME280;59641;45.188;5.712;2023-05-21T02:25:11;98777.06;;;18.43;61.14
71795;BME280;59641;45.188;5.712;2023-05-21T02:27:38;98789.81;;;18.43;60.95
71795;BME280;59641;45.188;5.712;2023-05-21T02:30:10;98777.63;;;18.40;61.54
71795;BME280;59641;45.188;5.712;2023-05-21T02:32:36;98777.91;;;18.39;61.10
71795;BME280;59641;45.188;5.712;2023-05-21T02:35:04;98775.47;;;18.37;61.55
71795;BME280;59641;45.188;5.712;2023-05-21T02:37:30;98777.09;;;18.38;61.58
71795;BME280;59641;45.188;5.712;2023-05-21T02:39:59;98777.09;;;18.38;61.53
71795;BME280;59641;45.188;5.712;2023-05-21T02:42:25;98770.03;;;18.37;61.73
71795;BME280;59641;45.188;5.712;2023-05-21T02:44:51;98771.66;;;18.38;61.57
71795;BME280;59641;45.188;5.712;2023-05-21T02:47:17;98766.22;;;18.38;61.53
71795;BME280;59641;45.188;5.712;2023-05-21T02:49:42;98764.59;;;18.37;61.70
71795;BME280;59641;45.188;5.712;2023-05-21T02:52:08;98768.16;;;18.38;61.46
71795;BME280;59641;45.188;5.712;2023-05-21T02:54:33;98764.59;;;18.37;61.72
71795;BME280;59641;45.188;5.712;2023-05-21T02:56:58;98770.88;;;18.38;61.78
71795;BME280;59641;45.188;5.712;2023-05-21T02:59:24;98771.13;;;18.36;61.53
71795;BME280;59641;45.188;5.712;2023-05-21T03:01:49;98761.38;;;18.35;61.55
71795;BME280;59641;45.188;5.712;2023-05-21T03:04:15;98764.91;;;18.36;61.40
71795;BME280;59641;45.188;5.712;2023-05-21T03:06:46;98769.22;;;18.37;61.62
71795;BME280;59641;45.188;5.712;2023-05-21T03:09:11;98774.66;;;18.37;61.34
71795;BME280;59641;45.188;5.712;2023-05-21T03:11:37;98778.47;;;18.36;61.53
71795;BME280;59641;45.188;5.712;2023-05-21T03:14:02;98770.59;;;18.34;61.70
71795;BME280;59641;45.188;5.712;2023-05-21T03:16:27;98769.81;;;18.34;61.41
71795;BME280;59641;45.188;5.712;2023-05-21T03:18:53;98774.72;;;18.31;61.75
71795;BME280;59641;45.188;5.712;2023-05-21T03:21:18;98780.94;;;18.32;61.61
71795;BME280;59641;45.188;5.712;2023-05-21T03:23:47;98778.53;;;18.30;61.92
71795;BME280;59641;45.188;5.712;2023-05-21T03:26:13;98780.41;;;18.30;61.66
71795;BME280;59641;45.188;5.712;2023-05-21T03:28:38;98786.69;;;18.30;61.71
71795;BME280;59641;45.188;5.712;2023-05-21T03:31:03;98786.94;;;18.29;61.70
71795;BME280;59641;45.188;5.712;2023-05-21T03:33:29;98784.22;;;18.29;62.17
71795;BME280;59641;45.188;5.712;2023-05-21T03:35:54;98779.06;;;18.27;62.01
71795;BME280;59641;45.188;5.712;2023-05-21T03:38:20;98782.63;;;18.28;61.69
71795;BME280;59641;45.188;5.712;2023-05-21T03:40:45;98781.78;;;18.27;62.09
71795;BME280;59641;45.188;5.712;2023-05-21T03:43:10;98775.56;;;18.27;61.91
71795;BME280;59641;45.188;5.712;2023-05-21T03:45:36;98767.69;;;18.25;62.05
71795;BME280;59641;45.188;5.712;2023-05-21T03:48:01;98768.00;;;18.24;61.69
71795;BME280;59641;45.188;5.712;2023-05-21T03:50:27;98773.41;;;18.24;62.18
71795;BME280;59641;45.188;5.712;2023-05-21T03:52:52;98782.63;;;18.23;62.08
71795;BME280;59641;45.188;5.712;2023-05-21T03:55:17;98778.31;;;18.22;61.93
71795;BME280;59641;45.188;5.712;2023-05-21T03:57:43;98780.22;;;18.21;61.86
71795;BME280;59641;45.188;5.712;2023-05-21T04:00:08;98781.31;;;18.20;61.92
71795;BME280;59641;45.188;5.712;2023-05-21T04:02:34;98778.59;;;18.20;61.92
71795;BME280;59641;45.188;5.712;2023-05-21T04:04:59;98777.78;;;18.20;62.09
71795;BME280;59641;45.188;5.712;2023-05-21T04:07:25;98786.75;;;18.20;62.01
71795;BME280;59641;45.188;5.712;2023-05-21T04:09:51;98784.84;;;18.21;62.05
71795;BME280;59641;45.188;5.712;2023-05-21T04:12:16;98782.13;;;18.21;62.46
71795;BME280;59641;45.188;5.712;2023-05-21T04:14:44;98783.22;;;18.20;62.23
71795;BME280;59641;45.188;5.712;2023-05-21T04:17:10;98792.16;;;18.20;62.03
71795;BME280;59641;45.188;5.712;2023-05-21T04:19:37;98796.53;;;18.21;61.87
71795;BME280;59641;45.188;5.712;2023-05-21T04:22:03;98790.28;;;18.21;62.05
71795;BME280;59641;45.188;5.712;2023-05-21T04:24:28;98793.00;;;18.21;62.24
71795;BME280;59641;45.188;5.712;2023-05-21T04:26:54;98794.88;;;18.20;62.35
71795;BME280;59641;45.188;5.712;2023-05-21T04:29:20;98799.78;;;18.18;62.08
71795;BME280;59641;45.188;5.712;2023-05-21T04:31:48;98798.97;;;18.18;61.92
71795;BME280;59641;45.188;5.712;2023-05-21T04:34:15;98796.25;;;18.18;62.36
71795;BME280;59641;45.188;5.712;2023-05-21T04:36:44;98797.66;;;18.15;62.33
71795;BME280;59641;45.188;5.712;2023-05-21T04:39:13;98794.66;;;18.17;62.25
71795;BME280;59641;45.188;5.712;2023-05-21T04:41:38;98797.66;;;18.15;61.92
71795;BME280;59641;45.188;5.712;2023-05-21T04:44:06;98799.56;;;18.15;62.21
71795;BME280;59641;45.188;5.712;2023-05-21T04:46:32;98801.75;;;18.13;61.92
71795;BME280;59641;45.188;5.712;2023-05-21T04:48:59;98804.97;;;18.15;62.33
71795;BME280;59641;45.188;5.712;2023-05-21T04:51:27;98806.91;;;18.14;62.05
71795;BME280;59641;45.188;5.712;2023-05-21T04:53:52;98797.94;;;18.14;62.14
71795;BME280;59641;45.188;5.712;2023-05-21T04:56:18;98809.88;;;18.13;62.04
71795;BME280;59641;45.188;5.712;2023-05-21T04:58:44;98809.09;;;18.12;62.27
71795;BME280;59641;45.188;5.712;2023-05-21T05:01:10;98811.00;;;18.12;62.11
71795;BME280;59641;45.188;5.712;2023-05-21T05:03:36;98817.50;;;18.10;62.23
71795;BME280;59641;45.188;5.712;2023-05-21T05:06:02;98815.59;;;18.11;61.87
71795;BME280;59641;45.188;5.712;2023-05-21T05:08:28;98806.63;;;18.10;62.05
71795;BME280;59641;45.188;5.712;2023-05-21T05:10:54;98813.97;;;18.10;61.81
71795;BME280;59641;45.188;5.712;2023-05-21T05:13:19;98817.50;;;18.10;62.15
71795;BME280;59641;45.188;5.712;2023-05-21T05:15:44;98811.53;;;18.08;61.90
71795;BME280;59641;45.188;5.712;2023-05-21T05:18:11;98811.53;;;18.08;62.00
71795;BME280;59641;45.188;5.712;2023-05-21T05:20:36;98803.69;;;18.07;61.89
71795;BME280;59641;45.188;5.712;2023-05-21T05:23:01;98807.47;;;18.06;61.83
71795;BME280;59641;45.188;5.712;2023-05-21T05:25:27;98817.25;;;18.07;61.77
71795;BME280;59641;45.188;5.712;2023-05-21T05:27:52;98811.84;;;18.07;61.99
71795;BME280;59641;45.188;5.712;2023-05-21T05:30:19;98813.75;;;18.06;62.14
71795;BME280;59641;45.188;5.712;2023-05-21T05:32:44;98816.16;;;18.08;62.24
71795;BME280;59641;45.188;5.712;2023-05-21T05:35:10;98804.50;;;18.07;62.37
71795;BME280;59641;45.188;5.712;2023-05-21T05:37:36;98810.72;;;18.08;62.12
71795;BME280;59641;45.188;5.712;2023-05-21T05:40:01;98820.50;;;18.09;62.23
71795;BME280;59641;45.188;5.712;2023-05-21T05:42:26;98813.97;;;18.10;62.12
71795;BME280;59641;45.188;5.712;2023-05-21T05:44:52;98816.69;;;18.10;62.30
71795;BME280;59641;45.188;5.712;2023-05-21T05:47:17;98824.56;;;18.12;62.39
71795;BME280;59641;45.188;5.712;2023-05-21T05:49:43;98821.53;;;18.13;62.07
71795;BME280;59641;45.188;5.712;2023-05-21T05:52:08;98816.94;;;18.14;62.34
71795;BME280;59641;45.188;5.712;2023-05-21T05:54:33;98812.31;;;18.14;62.18
71795;BME280;59641;45.188;5.712;2023-05-21T05:56:59;98813.66;;;18.17;62.36
71795;BME280;59641;45.188;5.712;2023-05-21T05:59:24;98804.72;;;18.16;62.26
71795;BME280;59641;45.188;5.712;2023-05-21T06:01:50;98815.56;;;18.16;62.04
71795;BME280;59641;45.188;5.712;2023-05-21T06:04:15;98813.66;;;18.17;62.11
71795;BME280;59641;45.188;5.712;2023-05-21T06:06:40;98816.38;;;18.17;62.11
71795;BME280;59641;45.188;5.712;2023-05-21T06:09:06;98807.13;;;18.18;62.04
71795;BME280;59641;45.188;5.712;2023-05-21T06:11:31;98817.19;;;18.17;62.16
71795;BME280;59641;45.188;5.712;2023-05-21T06:13:56;98823.16;;;18.19;62.10
71795;BME280;59641;45.188;5.712;2023-05-21T06:16:25;98821.25;;;18.20;62.37
71795;BME280;59641;45.188;5.712;2023-05-21T06:18:50;98825.59;;;18.21;62.15
71795;BME280;59641;45.188;5.712;2023-05-21T06:21:15;98823.69;;;18.21;62.34
71795;BME280;59641;45.188;5.712;2023-05-21T06:23:41;98836.16;;;18.22;62.69
71795;BME280;59641;45.188;5.712;2023-05-21T06:26:06;98825.28;;;18.22;62.47
71795;BME280;59641;45.188;5.712;2023-05-21T06:28:31;98825.00;;;18.24;62.41
71795;BME280;59641;45.188;5.712;2023-05-21T06:30:57;98831.25;;;18.24;62.46
71795;BME280;59641;45.188;5.712;2023-05-21T06:33:22;98828.53;;;18.24;62.52
71795;BME280;59641;45.188;5.712;2023-05-21T06:35:47;98835.31;;;18.27;62.16
71795;BME280;59641;45.188;5.712;2023-05-21T06:38:13;98843.44;;;18.27;62.57
71795;BME280;59641;45.188;5.712;2023-05-21T06:40:38;98838.56;;;18.29;62.66
71795;BME280;59641;45.188;5.712;2023-05-21T06:43:03;98842.88;;;18.30;62.45
71795;BME280;59641;45.188;5.712;2023-05-21T06:45:29;98846.13;;;18.32;62.25
71795;BME280;59641;45.188;5.712;2023-05-21T06:47:54;98843.94;;;18.34;62.25
71795;BME280;59641;45.188;5.712;2023-05-21T06:50:20;98841.75;;;18.36;62.37
71795;BME280;59641;45.188;5.712;2023-05-21T06:52:45;98835.22;;;18.37;62.39
71795;BME280;59641;45.188;5.712;2023-05-21T06:55:10;98839.28;;;18.40;62.41
71795;BME280;59641;45.188;5.712;2023-05-21T06:57:37;98842.81;;;18.40;62.15
71795;BME280;59641;45.188;5.712;2023-05-21T07:00:03;98839.00;;;18.41;62.39
71795;BME280;59641;45.188;5.712;2023-05-21T07:02:29;98844.97;;;18.43;62.31
71795;BME280;59641;45.188;5.712;2023-05-21T07:04:54;98834.91;;;18.44;62.45
71795;BME280;59641;45.188;5.712;2023-05-21T07:07:19;98839.25;;;18.45;62.06
71795;BME280;59641;45.188;5.712;2023-05-21T07:09:45;98849.00;;;18.46;62.31
71795;BME280;59641;45.188;5.712;2023-05-21T07:12:10;98846.81;;;18.48;62.06
71795;BME280;59641;45.188;5.712;2023-05-21T07:14:36;98852.25;;;18.48;62.15
71795;BME280;59641;45.188;5.712;2023-05-21T07:17:01;98849.53;;;18.48;62.44
71795;BME280;59641;45.188;5.712;2023-05-21T07:19:26;98851.47;;;18.47;62.33
71795;BME280;59641;45.188;5.712;2023-05-21T07:21:52;98847.63;;;18.48;62.47
71795;BME280;59641;45.188;5.712;2023-05-21T07:24:17;98849.25;;;18.49;62.43
71795;BME280;59641;45.188;5.712;2023-05-21T07:26:42;98848.69;;;18.52;62.37
71795;BME280;59641;45.188;5.712;2023-05-21T07:29:08;98848.69;;;18.52;62.43
71795;BME280;59641;45.188;5.712;2023-05-21T07:31:33;98851.09;;;18.54;62.15
71795;BME280;59641;45.188;5.712;2023-05-21T07:33:59;98850.84;;;18.56;62.46
71795;BME280;59641;45.188;5.712;2023-05-21T07:36:24;98848.13;;;18.56;62.23
71795;BME280;59641;45.188;5.712;2023-05-21T07:38:50;98849.22;;;18.55;62.16
71795;BME280;59641;45.188;5.712;2023-05-21T07:41:17;98852.44;;;18.57;62.20
71795;BME280;59641;45.188;5.712;2023-05-21T07:43:42;98853.56;;;18.56;61.92
71795;BME280;59641;45.188;5.712;2023-05-21T07:46:08;98857.88;;;18.57;62.35
71795;BME280;59641;45.188;5.712;2023-05-21T07:48:33;98865.75;;;18.58;62.52
71795;BME280;59641;45.188;5.712;2023-05-21T07:50:59;98861.13;;;18.59;62.44
71795;BME280;59641;45.188;5.712;2023-05-21T07:53:25;98861.44;;;18.57;62.11
71795;BME280;59641;45.188;5.712;2023-05-21T07:55:50;98852.44;;;18.57;62.13
71795;BME280;59641;45.188;5.712;2023-05-21T07:58:16;98856.00;;;18.57;62.38
71795;BME280;59641;45.188;5.712;2023-05-21T08:00:44;98863.31;;;18.57;61.97
71795;BME280;59641;45.188;5.712;2023-05-21T08:03:13;98863.84;;;18.59;61.96
71795;BME280;59641;45.188;5.712;2023-05-21T08:05:41;98863.84;;;18.59;62.06
71795;BME280;59641;45.188;5.712;2023-05-21T08:08:06;98864.69;;;18.54;61.94
71795;BME280;59641;45.188;5.712;2023-05-21T08:10:31;98869.31;;;18.53;62.34
71795;BME280;59641;45.188;5.712;2023-05-21T08:12:57;98869.03;;;18.55;62.14
71795;BME280;59641;45.188;5.712;2023-05-21T08:15:22;98857.66;;;18.53;62.28
71795;BME280;59641;45.188;5.712;2023-05-21T08:17:48;98869.03;;;18.55;62.08
71795;BME280;59641;45.188;5.712;2023-05-21T08:20:13;98866.59;;;18.53;62.24
71795;BME280;59641;45.188;5.712;2023-05-21T08:22:39;98875.81;;;18.58;62.20
71795;BME280;59641;45.188;5.712;2023-05-21T08:25:06;98870.13;;;18.54;62.43
71795;BME280;59641;45.188;5.712;2023-05-21T08:27:32;98865.53;;;18.55;62.34
71795;BME280;59641;45.188;5.712;2023-05-21T08:29:57;98869.03;;;18.55;62.23
71795;BME280;59641;45.188;5.712;2023-05-21T08:32:24;98858.97;;;18.56;62.33
71795;BME280;59641;45.188;5.712;2023-05-21T08:34:49;98875.53;;;18.59;61.98
71795;BME280;59641;45.188;5.712;2023-05-21T08:37:14;98874.44;;;18.60;62.29
71795;BME280;59641;45.188;5.712;2023-05-21T08:39:42;98873.84;;;18.63;62.06
71795;BME280;59641;45.188;5.712;2023-05-21T08:42:21;98870.88;;;18.65;62.02
71795;BME280;59641;45.188;5.712;2023-05-21T08:44:50;98869.75;;;18.66;61.92
71795;BME280;59641;45.188;5.712;2023-05-21T08:47:17;98863.78;;;18.64;61.87
71795;BME280;59641;45.188;5.712;2023-05-21T08:49:49;98867.34;;;18.64;61.83
71795;BME280;59641;45.188;5.712;2023-05-21T08:52:15;98870.56;;;18.66;61.91
71795;BME280;59641;45.188;5.712;2023-05-21T08:54:41;98868.94;;;18.65;62.07
71795;BME280;59641;45.188;5.712;2023-05-21T08:57:08;98863.78;;;18.69;61.70
71795;BME280;59641;45.188;5.712;2023-05-21T08:59:34;98863.47;;;18.70;61.90
71795;BME280;59641;45.188;5.712;2023-05-21T09:02:01;98865.59;;;18.73;61.83
71795;BME280;59641;45.188;5.712;2023-05-21T09:04:27;98868.84;;;18.76;61.77
71795;BME280;59641;45.188;5.712;2023-05-21T09:06:53;98874.03;;;18.77;61.80
71795;BME280;59641;45.188;5.712;2023-05-21T09:09:31;98871.56;;;18.81;61.54
71795;BME280;59641;45.188;5.712;2023-05-21T09:11:58;98875.09;;;18.81;61.81
71795;BME280;59641;45.188;5.712;2023-05-21T09:14:23;98872.91;;;18.83;61.57
71795;BME280;59641;45.188;5.712;2023-05-21T09:16:50;98878.06;;;18.85;61.71
71795;BME280;59641;45.188;5.712;2023-05-21T09:19:15;98870.16;;;18.88;62.16
71795;BME280;59641;45.188;5.712;2023-05-21T09:21:41;98875.28;;;18.90;62.26
71795;BME280;59641;45.188;5.712;2023-05-21T09:24:08;98875.22;;;18.95;61.89
71795;BME280;59641;45.188;5.712;2023-05-21T09:26:33;98873.34;;;18.96;62.14
71795;BME280;59641;45.188;5.712;2023-05-21T09:28:59;98876.28;;;18.99;62.04
71795;BME280;59641;45.188;5.712;2023-05-21T09:31:25;98869.75;;;19.00;61.76
71795;BME280;59641;45.188;5.712;2023-05-21T09:33:53;98874.31;;;19.05;62.01
71795;BME280;59641;45.188;5.712;2023-05-21T09:36:20;98877.56;;;19.07;62.03
71795;BME280;59641;45.188;5.712;2023-05-21T09:38:50;98875.91;;;19.11;62.32
71795;BME280;59641;45.188;5.712;2023-05-21T09:41:16;98878.84;;;19.14;61.49
71795;BME280;59641;45.188;5.712;2023-05-21T09:43:42;98875.84;;;19.16;61.90
71795;BME280;59641;45.188;5.712;2023-05-21T09:46:09;98877.97;;;19.19;61.39
71795;BME280;59641;45.188;5.712;2023-05-21T09:48:39;98868.16;;;19.23;61.50
71795;BME280;59641;45.188;5.712;2023-05-21T09:51:19;98872.50;;;19.24;61.02
71795;BME280;59641;45.188;5.712;2023-05-21T09:53:55;98867.56;;;19.26;61.00
71795;BME280;59641;45.188;5.712;2023-05-21T09:56:26;98872.19;;;19.26;60.64
71795;BME280;59641;45.188;5.712;2023-05-21T09:59:02;98873.00;;;19.26;60.49
71795;BME280;59641;45.188;5.712;2023-05-21T10:01:31;98867.34;;;19.23;60.47
71795;BME280;59641;45.188;5.712;2023-05-21T10:04:05;98869.47;;;19.26;60.42
71795;BME280;59641;45.188;5.712;2023-05-21T10:06:31;98873.00;;;19.26;60.54
71795;BME280;59641;45.188;5.712;2023-05-21T10:09:02;98875.16;;;19.29;60.27
71795;BME280;59641;45.188;5.712;2023-05-21T10:11:30;98871.59;;;19.29;60.37
71795;BME280;59641;45.188;5.712;2023-05-21T10:14:06;98878.09;;;19.33;60.26
71795;BME280;59641;45.188;5.712;2023-05-21T10:16:34;98881.63;;;19.33;60.38
71795;BME280;59641;45.188;5.712;2023-05-21T10:19:00;98881.34;;;19.35;59.89
71795;BME280;59641;45.188;5.712;2023-05-21T10:21:26;98883.25;;;19.34;59.97
71795;BME280;59641;45.188;5.712;2023-05-21T10:23:53;98885.97;;;19.34;60.25
71795;BME280;59641;45.188;5.712;2023-05-21T10:26:20;98884.88;;;19.35;60.25
71795;BME280;59641;45.188;5.712;2023-05-21T10:28:48;98888.91;;;19.38;60.68
71795;BME280;59641;45.188;5.712;2023-05-21T10:31:15;98877.47;;;19.41;60.46
71795;BME280;59641;45.188;5.712;2023-05-21T10:33:40;98876.09;;;19.44;60.47
71795;BME280;59641;45.188;5.712;2023-05-21T10:36:07;98873.06;;;19.45;60.57
71795;BME280;59641;45.188;5.712;2023-05-21T10:38:32;98878.22;;;19.47;60.49
71795;BME280;59641;45.188;5.712;2023-05-21T10:40:58;98878.44;;;19.50;60.37
71795;BME280;59641;45.188;5.712;2023-05-21T10:57:33;98875.00;;;19.69;59.96
71795;BME280;59641;45.188;5.712;2023-05-21T11:00:04;98881.53;;;19.68;59.98
71795;BME280;59641;45.188;5.712;2023-05-21T11:02:32;98882.34;;;19.68;59.97
71795;BME280;59641;45.188;5.712;2023-05-21T11:04:59;98885.28;;;19.72;59.88
71795;BME280;59641;45.188;5.712;2023-05-21T11:07:50;98885.53;;;19.75;59.91
71795;BME280;59641;45.188;5.712;2023-05-21T11:13:15;98881.94;;;19.80;59.89
71795;BME280;59641;45.188;5.712;2023-05-21T11:21:08;98880.75;;;19.86;59.83
71795;BME280;59641;45.188;5.712;2023-05-21T11:26:19;98867.06;;;19.91;59.79
71795;BME280;59641;45.188;5.712;2023-05-21T11:28:45;98871.94;;;19.94;59.64
71795;BME280;59641;45.188;5.712;2023-05-21T11:31:24;98865.91;;;19.97;59.62
71795;BME280;59641;45.188;5.712;2023-05-21T11:36:32;98867.47;;;20.04;59.56
71795;BME280;59641;45.188;5.712;2023-05-21T11:39:18;98856.25;;;20.05;59.11
71795;BME280;59641;45.188;5.712;2023-05-21T11:41:57;98861.09;;;20.08;59.36
71795;BME280;59641;45.188;5.712;2023-05-21T11:47:12;98862.13;;;20.12;58.94
71795;BME280;59641;45.188;5.712;2023-05-21T11:49:39;98851.47;;;20.16;58.93
71795;BME280;59641;45.188;5.712;2023-05-21T11:52:06;98854.72;;;20.18;59.03
71795;BME280;59641;45.188;5.712;2023-05-21T11:54:33;98857.13;;;20.19;58.64
71795;BME280;59641;45.188;5.712;2023-05-21T11:57:06;98852.19;;;20.21;58.64
71795;BME280;59641;45.188;5.712;2023-05-21T11:59:32;98850.78;;;20.24;58.63
71795;BME280;59641;45.188;5.712;2023-05-21T12:01:58;98850.19;;;20.27;58.70
71795;BME280;59641;45.188;5.712;2023-05-21T12:04:29;98853.16;;;20.31;58.37
71795;BME280;59641;45.188;5.712;2023-05-21T12:06:54;98840.03;;;20.33;58.13
71795;BME280;59641;45.188;5.712;2023-05-21T12:09:22;98833.47;;;20.34;57.87
71795;BME280;59641;45.188;5.712;2023-05-21T12:11:48;98846.50;;;20.37;58.18
71795;BME280;59641;45.188;5.712;2023-05-21T12:14:15;98837.75;;;20.40;58.10
71795;BME280;59641;45.188;5.712;2023-05-21T12:16:40;98840.69;;;20.43;58.07
71795;BME280;59641;45.188;5.712;2023-05-21T12:19:06;98836.88;;;20.45;58.48
71795;BME280;59641;45.188;5.712;2023-05-21T12:21:31;98838.66;;;20.49;58.31
71795;BME280;59641;45.188;5.712;2023-05-21T12:23:57;98833.44;;;20.53;58.35
71795;BME280;59641;45.188;5.712;2023-05-21T12:26:24;98829.06;;;20.57;58.01
71795;BME280;59641;45.188;5.712;2023-05-21T12:28:51;98825.72;;;20.60;57.97
71795;BME280;59641;45.188;5.712;2023-05-21T12:31:18;98825.13;;;20.63;57.83
71795;BME280;59641;45.188;5.712;2023-05-21T12:33:44;98823.41;;;20.67;57.52
71795;BME280;59641;45.188;5.712;2023-05-21T12:36:25;98823.63;;;20.71;57.29
71795;BME280;59641;45.188;5.712;2023-05-21T12:38:51;98827.97;;;20.72;57.49
71795;BME280;59641;45.188;5.712;2023-05-21T12:41:17;98825.75;;;20.74;57.08
71795;BME280;59641;45.188;5.712;2023-05-21T12:43:43;98834.13;;;20.77;57.58
71795;BME280;59641;45.188;5.712;2023-05-21T12:46:12;98827.59;;;20.78;57.35
71795;BME280;59641;45.188;5.712;2023-05-21T12:48:48;98822.63;;;20.80;57.65
71795;BME280;59641;45.188;5.712;2023-05-21T12:51:15;98832.44;;;20.81;57.28
71795;BME280;59641;45.188;5.712;2023-05-21T12:53:41;98832.16;;;20.83;57.23
71795;BME280;59641;45.188;5.712;2023-05-21T12:56:10;98824.97;;;20.87;57.67
71795;BME280;59641;45.188;5.712;2023-05-21T12:58:36;98829.84;;;20.90;57.74
71795;BME280;59641;45.188;5.712;2023-05-21T13:01:06;98829.75;;;20.95;57.96
71795;BME280;59641;45.188;5.712;2023-05-21T13:03:32;98828.31;;;20.98;57.12
71795;BME280;59641;45.188;5.712;2023-05-21T13:06:00;98824.97;;;21.01;57.40
71795;BME280;59641;45.188;5.712;2023-05-21T13:08:26;98833.06;;;21.06;56.81
71795;BME280;59641;45.188;5.712;2023-05-21T13:10:52;98826.53;;;21.07;56.18
71795;BME280;59641;45.188;5.712;2023-05-21T13:13:17;98826.19;;;21.09;56.25
71795;BME280;59641;45.188;5.712;2023-05-21T13:15:43;98825.91;;;21.10;56.31
71795;BME280;59641;45.188;5.712;2023-05-21T13:18:08;98823.38;;;21.14;56.69
71795;BME280;59641;45.188;5.712;2023-05-21T13:20:35;98817.31;;;21.17;56.27
71795;BME280;59641;45.188;5.712;2023-05-21T13:23:00;98812.66;;;21.17;56.45
71795;BME280;59641;45.188;5.712;2023-05-21T13:25:27;98824.59;;;21.21;56.43
71795;BME280;59641;45.188;5.712;2023-05-21T13:27:53;98818.03;;;21.22;56.31
71795;BME280;59641;45.188;5.712;2023-05-21T13:30:19;98819.34;;;21.25;56.10